Warning: Javascript must be enabled to use all the features on this page!


Page Loading - Please Wait...

Click to hideNews Bulletins

USGS 02110500 WACCAMAW RIVER NEAR LONGS, SC

PROVISIONAL DATA SUBJECT TO REVISION

Click to hidestation-specific text
Funding for this site is provided by the cooperators / programs below:
Click to go to the Horry County Stormwater web page

Horry County Stormwater


This station managed by the South Atlantic WSC Conway Field Office.

Available Parameters Available Period
All 7 Available Parameters for this site
  
00010 Temperature, water 2007-10-01  2018-09-19
00060 Discharge 1985-10-01  2018-10-15
00065 Gage height 2007-10-01  2018-10-15
00095 Specific cond at 25C 2007-10-01  2018-09-19
00300 Dissolved oxygen 2007-10-01  2018-09-19
00400 pH 2007-10-01  2018-09-19
63680 Turbidity, Form Neph 2007-10-27  2018-09-19

Graph
Graph w/ stats
Graph w/o stats
Graph w/ (up to 3) parms
Table
Tab-separated
Days  (13)
 

  -- or --
Begin date
 

End date
 

Summary of all available data for this site
Instantaneous-data availability statement
Gage height, feet
TIMESep 15Sep 16Sep 17Sep 18Sep 19Sep 20Sep 21Sep 22Sep 23Sep 24Sep 25Sep 26Sep 27Sep 28
00:00 EDT7.19P  10.61P  12.91P  14.50P  16.77P  19.17P  20.03P  20.21P  20.02P  19.58P  18.99P  18.29P  17.52P  16.71P  
00:15 EDT7.25P  10.64P  12.93P  14.51P  16.81P  19.21P  20.04P  20.21P  20.02P  19.56P  18.97P  18.28P  17.50P  16.68P  
00:30 EDT7.33P  10.67P  12.95P  14.53P  16.83P  19.21P  20.04P  20.20P  20.01P  19.55P  18.97P  18.27P  17.50P  16.68P  
00:45 EDT7.40P  10.70P  12.97P  14.55P  16.87P  19.22P  20.04P  20.21P  20.01P  19.55P  18.97P  18.27P  17.49P  16.67P  
01:00 EDT7.48P  10.73P  12.98P  14.57P  16.88P  19.22P  20.04P  20.21P  20.01P  19.55P  18.96P  18.26P  17.49P  16.67P  
01:15 EDT7.54P  10.75P  13.00P  14.58P  16.91P  19.26P  20.05P  20.21P  20.00P  19.54P  18.94P  18.25P  17.47P  16.65P  
01:30 EDT7.62P  10.78P  13.02P  14.61P  16.93P  19.27P  20.06P  20.21P  19.99P  19.54P  18.94P  18.23P  17.46P  16.64P  
01:45 EDT7.68P  10.81P  13.04P  14.62P  16.95P  19.26P  20.05P  20.21P  19.99P  19.53P  18.94P  18.24P  17.46P  16.64P  
02:00 EDT7.74P  10.84P  13.05P  14.64P  16.98P  19.28P  20.05P  20.21P  19.98P  19.53P  18.93P  18.24P  17.46P  16.64P  
02:15 EDT7.81P  10.87P  13.08P  14.66P  17.01P  19.32P  20.07P  20.20P  19.98P  19.51P  18.91P  18.21P  17.43P  16.62P  
02:30 EDT7.86P  10.90P  13.09P  14.67P  17.02P  19.33P  20.07P  20.21P  19.98P  19.52P  18.91P  18.21P  17.42P  16.61P  
02:45 EDT7.91P  10.93P  13.11P  14.69P  17.05P  19.34P  20.07P  20.21P  19.97P  19.51P  18.91P  18.21P  17.43P  16.61P  
03:00 EDT7.97P  10.96P  13.13P  14.71P  17.08P  19.34P  20.07P  20.21P  19.98P  19.51P  18.90P  18.20P  17.42P  16.60P  
03:15 EDT8.02P  11.00P  13.14P  14.73P  17.11P  19.37P  20.08P  20.21P  19.97P  19.49P  18.88P  18.19P  17.40P  16.58P  
03:30 EDT8.07P  11.04P  13.16P  14.75P  17.13P  19.38P  20.09P  20.21P  19.96P  19.49P  18.88P  18.18P  17.40P  16.57P  
03:45 EDT8.11P  11.05P  13.18P  14.76P  17.16P  19.40P  20.08P  20.20P  19.96P  19.48P  18.88P  18.17P  17.39P  16.57P  
04:00 EDT8.16P  11.08P  13.20P  14.78P  17.19P  19.38P  20.09P  20.20P  19.95P  19.48P  18.88P  18.17P  17.38P  16.58P  
04:15 EDT8.19P  11.10P  13.21P  14.80P  17.21P  19.42P  20.10P  20.21P  19.95P  19.47P  18.86P  18.16P  17.36P  16.54P  
04:30 EDT8.24P  11.13P  13.23P  14.82P  17.24P  19.43P  20.09P  20.20P  19.95P  19.47P  18.86P  18.16P  17.36P  16.54P  
04:45 EDT8.28P  11.17P  13.25P  14.83P  17.26P  19.43P  20.10P  20.21P  19.95P  19.46P  18.85P  18.15P  17.36P  16.54P  
05:00 EDT8.33P  11.19P  13.26P  14.85P  17.28P  19.44P  20.10P  20.20P  19.95P  19.46P  18.85P  18.14P  17.36P  16.53P  
05:15 EDT8.36P  11.22P  13.28P  14.87P  17.30P  19.47P  20.11P  20.20P  19.93P  19.44P  18.83P  18.13P  17.33P  16.52P  
05:30 EDT8.39P  11.25P  13.30P  14.89P  17.32P  19.47P  20.11P  20.20P  19.93P  19.43P  18.83P  18.12P  17.33P  16.51P  
05:45 EDT8.42P  11.28P  13.31P  14.90P  17.33P  19.47P  20.11P  20.19P  19.93P  19.44P  18.83P  18.11P  17.33P  16.51P  
06:00 EDT8.45P  11.30P  13.33P  14.92P  17.35P  19.47P  20.11P  20.21P  19.93P  19.44P  18.82P  18.12P  17.32P  16.50P  
06:15 EDT8.48P  11.33P  13.34P  14.93P  17.37P  19.51P  20.12P  20.19P  19.92P  19.42P  18.80P  18.10P  17.30P  16.48P  
06:30 EDT8.52P  11.36P  13.36P  14.95P  17.38P  19.51P  20.12P  20.19P  19.91P  19.41P  18.80P  18.09P  17.29P  16.47P  
06:45 EDT8.54P  11.38P  13.38P  14.97P   19.52P  20.11P  20.20P  19.91P  19.42P  18.80P  18.09P  17.29P  16.47P  
07:00 EDT8.58P  11.41P  13.39P  14.99P   19.51P  20.12P  20.19P  19.91P  19.41P  18.79P  18.08P  17.29P  16.46P  
07:15 EDT8.61P  11.44P  13.41P  15.01P   19.56P  20.13P  20.19P  19.90P  19.39P  18.77P  18.06P  17.26P  16.45P  
07:30 EDT8.65P  11.47P  13.43P  15.03P   19.56P  20.13P  20.19P  19.91P  19.40P  18.77P  18.06P  17.26P  16.44P  
07:45 EDT8.68P  11.49P  13.44P  15.06P   19.55P  20.14P  20.19P  19.90P  19.40P  18.77P  18.06P  17.26P  16.43P  
08:00 EDT8.71P  11.51P  13.46P  15.08P   19.57P  20.15P  20.19P  19.90P  19.39P  18.77P  18.05P  17.25P  16.44P  
08:15 EDT8.75P  11.53P  13.48P  15.10P   19.60P  20.16P  20.19P  19.89P  19.38P  18.74P  18.03P  17.23P  16.40P  
08:30 EDT8.79P  11.56P  13.49P  15.11P   19.60P  20.15P  20.19P  19.88P  19.37P  18.74P  18.02P  17.24P  16.40P  
08:45 EDT8.83P  11.58P  13.51P  15.15P   19.61P  20.16P  20.19P  19.89P  19.37P  18.73P  18.02P  17.23P  16.40P  
09:00 EDT8.87P  11.60P  13.52P  15.18P   19.61P  20.16P  20.18P  19.89P  19.36P  18.73P  18.02P  17.23P  16.40P  
09:15 EDT8.90P  11.63P  13.54P  15.19P   19.65P  20.16P  20.19P  19.88P  19.35P  18.72P  18.01P  17.21P  16.39P  
09:30 EDT8.93P  11.65P  13.56P  15.22P   19.65P  20.18P  20.19P  19.88P  19.36P  18.71P  18.00P  17.21P  16.39P  
09:45 EDT8.97P  11.67P  13.57P  15.24P   19.65P  20.18P  20.19P  19.88P  19.35P  18.71P  17.99P  17.20P  16.38P  
10:00 EDT8.99P  11.71P  13.58P  15.27P   19.66P  20.16P  20.19P  19.88P  19.35P  18.71P  18.01P  17.20P  16.39P  
10:15 EDT9.02P  11.75P  13.60P  15.29P   19.68P  20.17P  20.19P  19.86P  19.33P  18.69P  17.98P  17.17P  16.36P  
10:30 EDT9.04P  11.78P  13.61P  15.31P   19.68P  20.17P  20.19P  19.86P  19.32P  18.69P  17.99P  17.17P  16.35P  
10:45 EDT9.07P  11.80P  13.63P  15.34P   19.69P  20.18P  20.19P  19.86P  19.33P  18.68P  17.98P  17.17P  16.36P  
11:00 EDT9.10P  11.83P  13.64P  15.35P   19.69P  20.18P  20.18P  19.85P  19.32P  18.68P  17.98P  17.17P  16.35P  
11:15 EDT9.12P  11.85P  13.66P  15.38P  18.27P  19.72P  20.18P  20.18P  19.83P  19.31P  18.67P  17.95P  17.15P  16.32P  
11:30 EDT9.15P  11.87P  13.67P  15.40P  18.28P  19.72P  20.18P  20.18P  19.83P  19.29P  18.67P  17.97P  17.14P  16.32P  
11:45 EDT9.17P  11.89P  13.69P  15.43P  18.30P  19.73P  20.19P  20.17P  19.84P  19.29P  18.67P  17.95P  17.14P  16.31P  
12:00 EDT9.19P  11.91P  13.71P  15.45P  18.30P  19.72P  20.18P  20.18P  19.83P  19.29P  18.66P  17.95P  17.13P  16.31P  
12:15 EDT9.21P  11.93P  13.72P  15.47P  18.32P  19.74P  20.18P  20.15P  19.82P  19.27P  18.63P  17.90P  17.09P  16.28P  
12:30 EDT9.24P  11.95P  13.73P  15.50P  18.32P  19.74P  20.18P  20.15P  19.81P  19.27P  18.63P  17.90P  17.09P  16.27P  
12:45 EDT9.26P  11.97P  13.75P  15.53P  18.33P  19.74P  20.18P  20.15P  19.81P  19.27P  18.62P  17.89P  17.09P  16.27P  
13:00 EDT9.29P  11.99P  13.77P  15.55P  18.33P  19.74P  20.17P  20.15P  19.80P  19.26P  18.63P  17.89P  17.09P  16.26P  
13:15 EDT9.31P  12.01P  13.78P  15.58P  18.41P  19.77P  20.18P  20.14P  19.78P  19.26P  18.61P  17.88P  17.07P  16.24P  
13:30 EDT9.33P  12.03P  13.79P  15.60P  18.42P  19.77P  20.18P  20.14P  19.79P  19.25P  18.60P  17.87P  17.07P  16.24P  
13:45 EDT9.37P  12.05P  13.81P  15.63P  18.41P  19.77P  20.19P  20.14P  19.78P  19.25P  18.60P  17.87P  17.07P  16.24P  
14:00 EDT9.39P  12.08P  13.82P  15.65P  18.43P  19.77P  20.18P  20.14P  19.78P  19.24P  18.60P  17.87P  17.05P  16.24P  
14:15 EDT9.42P  12.09P  13.84P  15.66P  18.50P  19.80P  20.19P  20.13P  19.77P  19.22P  18.58P  17.84P  17.04P  16.20P  
14:30 EDT9.45P  12.11P  13.86P  15.69P  18.51P  19.81P  20.19P  20.14P  19.77P  19.22P  18.57P  17.84P  17.03P  16.21P  
14:45 EDT9.48P  12.13P  13.87P  15.73P  18.53P  19.80P  20.20P  20.13P  19.77P  19.22P  18.57P  17.85P  17.02P  16.21P  
15:00 EDT9.51P  12.16P  13.89P  15.76P  18.54P  19.81P  20.19P  20.13P  19.77P  19.21P  18.57P  17.83P  17.03P  16.20P  
15:15 EDT9.54P  12.18P  13.91P  15.78P  18.59P  19.82P  20.19P  20.12P  19.75P  19.20P  18.55P  17.79P  17.00P  16.18P  
15:30 EDT9.57P  12.20P  13.92P  15.81P  18.59P  19.82P  20.19P  20.12P  19.75P  19.19P  18.54P  17.80P  16.99P  16.17P  
15:45 EDT9.59P  12.22P  13.94P  15.82P  18.60P  19.83P  20.19P  20.12P  19.75P  19.19P  18.54P  17.80P  17.00P  16.17P  
16:00 EDT9.62P  12.24P  13.96P  15.86P  18.60P  19.83P  20.19P  20.11P  19.75P  19.19P  18.54P  17.79P  16.99P  16.16P  
16:15 EDT9.64P  12.26P  13.97P  15.88P  18.67P  19.86P  20.19P  20.12P  19.73P  19.17P  18.51P  17.77P  16.97P  16.14P  
16:30 EDT9.66P  12.28P  13.99P  15.92P  18.69P  19.87P  20.20P  20.12P  19.73P  19.16P  18.52P  17.77P  16.97P  16.14P  
16:45 EDT9.69P  12.29P  14.00P  15.95P  18.69P  19.87P  20.21P  20.11P  19.73P  19.16P  18.51P  17.77P  16.96P  16.14P  
17:00 EDT9.71P  12.32P  14.02P  15.95P  18.69P  19.87P  20.20P  20.11P  19.72P  19.16P  18.51P  17.76P  16.96P  16.14P  
17:15 EDT9.74P  12.33P  14.04P  15.99P  18.75P  19.88P  20.20P  20.09P  19.70P  19.14P  18.49P  17.74P  16.93P  16.10P  
17:30 EDT9.77P  12.35P  14.05P  16.03P  18.75P  19.88P  20.20P  20.10P  19.70P  19.14P  18.48P  17.73P  16.95P  16.11P  
17:45 EDT9.81P  12.36P  14.08P  16.04P  18.75P  19.88P  20.21P  20.10P  19.70P  19.15P  18.49P  17.74P  16.93P  16.10P  
18:00 EDT9.85P  12.38P  14.09P  16.08P  18.77P  19.88P  20.19P  20.09P  19.70P  19.15P  18.48P  17.74P  16.92P  16.09P  
18:15 EDT9.88P  12.40P  14.10P  16.10P  18.83P  19.91P  20.20P  20.08P  19.68P  19.13P  18.46P  17.71P  16.89P  16.07P  
18:30 EDT9.90P  12.42P  14.12P  16.14P  18.83P  19.90P  20.20P  20.09P  19.68P  19.13P  18.46P  17.70P  16.89P  16.06P  
18:45 EDT9.93P  12.44P  14.13P  16.17P  18.83P  19.90P  20.20P  20.08P  19.67P  19.12P  18.46P  17.70P  16.88P  16.06P  
19:00 EDT9.96P  12.46P  14.16P  16.18P  18.84P  19.92P  20.21P  20.07P  19.68P  19.12P  18.44P  17.69P  16.88P  16.06P  
19:15 EDT9.98P  12.48P  14.17P  16.21P  18.89P  19.93P  20.20P  20.08P  19.67P  19.10P  18.42P  17.68P  16.87P  16.03P  
19:30 EDT10.01P  12.50P  14.19P  16.24P  18.90P  19.93P  20.22P  20.07P  19.66P  19.09P  18.42P  17.66P  16.85P  16.02P  
19:45 EDT10.04P  12.52P  14.20P  16.26P  18.90P  19.93P  20.21P  20.07P  19.67P  19.10P  18.42P  17.66P  16.84P  16.02P  
20:00 EDT10.07P  12.54P  14.23P  16.32P  18.92P  19.92P  20.20P  20.07P  19.67P  19.10P  18.41P  17.66P  16.84P  16.02P  
20:15 EDT10.09P  12.56P  14.24P  16.34P  18.97P  19.96P  20.20P  20.07P  19.65P  19.07P  18.39P  17.64P  16.81P  15.99P  
20:30 EDT10.12P  12.59P  14.26P  16.37P  18.96P  19.95P  20.21P  20.06P  19.64P  19.07P  18.40P  17.63P  16.81P  15.99P  
20:45 EDT10.15P  12.62P  14.27P  16.41P  18.98P  19.95P  20.21P  20.06P  19.65P  19.07P  18.39P  17.63P  16.81P  15.99P  
21:00 EDT10.19P  12.67P  14.29P  16.44P  18.97P  19.96P  20.21P  20.06P  19.64P  19.06P  18.39P  17.63P  16.81P  15.98P  
21:15 EDT10.22P  12.69P  14.30P  16.45P  19.03P  19.98P  20.21P  20.05P  19.63P  19.05P  18.37P  17.59P  16.79P  15.96P  
21:30 EDT10.25P  12.71P  14.33P  16.49P  19.04P  19.98P  20.21P  20.05P  19.62P  19.05P  18.36P  17.59P  16.78P  15.95P  
21:45 EDT10.30P  12.73P  14.34P  16.53P  19.05P  19.98P  20.21P  20.05P  19.62P  19.04P  18.36P  17.59P  16.78P  15.95P  
22:00 EDT10.34P  12.75P  14.36P  16.54P  19.04P  19.98P  20.21P  20.05P  19.62P  19.04P  18.36P  17.59P  16.78P  15.95P  
22:15 EDT10.37P  12.77P  14.38P  16.58P  19.09P  20.00P  20.21P  20.04P  19.60P  19.02P  18.33P  17.56P  16.75P  15.92P  
22:30 EDT10.40P  12.79P  14.39P  16.59P  19.10P  20.00P  20.21P  20.03P  19.60P  19.03P  18.33P  17.56P  16.75P  15.92P  
22:45 EDT10.43P  12.81P  14.41P  16.63P  19.10P  20.01P  20.21P  20.03P  19.60P  19.02P  18.33P  17.57P  16.75P  15.92P  
23:00 EDT10.47P  12.83P  14.43P  16.66P  19.11P  20.00P  20.21P  20.04P  19.60P  19.02P  18.33P  17.56P  16.74P  15.92P  
23:15 EDT10.50P  12.85P  14.45P  16.69P  19.15P  20.02P  20.22P  20.02P  19.58P  18.99P  18.29P  17.53P  16.71P  15.89P  
23:30 EDT10.53P  12.87P  14.47P  16.71P  19.16P  20.03P  20.21P  20.02P  19.58P  18.99P  18.30P  17.53P  16.72P  15.88P  
23:45 EDT10.57P  12.89P  14.48P  16.74P  19.15P  20.02P  20.21P  20.02P  19.58P  18.99P  18.30P  17.52P  16.71P  15.88P  
COUNT9696969678969696969696969696
MAX10.5712.8914.4816.7419.1620.0320.2220.2120.0219.5818.9918.2917.5216.71
MIN7.1910.6112.9114.5016.7719.1720.0320.0219.5818.9918.2917.5216.7115.88

Explanation
  P  Provisional data subject to revision.